Time,TemperatureF,DewpointF,PressureIn,WindDirection,WindDirectionDegrees,WindSpeedMPH,WindSpeedGustMPH,Humidity,HourlyPrecipIn,Conditions,Clouds,dailyrainin,SoftwareType,DateUTC
2013-09-12 00:04:00,61.5,60.9,29.78,SW,225,1.7,-999.0,98,-99.99,,,0.00,Acu-Link.com,2013-09-12 07:04:00,
2013-09-12 00:19:00,61.5,60.9,29.78,West,270,0.0,-999.0,98,-99.99,,,0.00,Acu-Link.com,2013-09-12 07:19:00,
2013-09-12 00:34:00,61.5,60.9,29.78,WNW,292,0.0,-999.0,98,-99.99,,,0.00,Acu-Link.com,2013-09-12 07:34:00,
2013-09-12 00:50:00,61.5,60.9,29.78,SSW,202,0.0,-999.0,98,-99.99,,,0.00,Acu-Link.com,2013-09-12 07:50:00,
2013-09-12 01:05:00,61.5,60.9,29.78,WNW,292,0.0,-999.0,98,-99.99,,,0.00,Acu-Link.com,2013-09-12 08:05:00,
2013-09-12 01:20:00,61.5,60.9,29.78,WSW,247,1.1,-999.0,98,-99.99,,,0.00,Acu-Link.com,2013-09-12 08:20:00,
2013-09-12 01:36:00,61.5,60.9,29.78,WNW,292,0.0,-999.0,98,-99.99,,,0.00,Acu-Link.com,2013-09-12 08:36:00,
2013-09-12 01:51:00,61.7,61.1,29.78,WSW,247,0.0,-999.0,98,-99.99,,,0.00,Acu-Link.com,2013-09-12 08:51:00,
2013-09-12 02:06:00,61.7,61.1,29.78,SSW,202,1.7,-999.0,98,-99.99,,,0.00,Acu-Link.com,2013-09-12 09:06:00,
2013-09-12 02:21:00,61.7,61.1,29.79,NNE,22,0.0,-999.0,98,-99.99,,,0.00,Acu-Link.com,2013-09-12 09:21:00,
2013-09-12 02:36:00,61.9,61.3,29.79,ESE,112,0.0,-999.0,98,-99.99,,,0.00,Acu-Link.com,2013-09-12 09:36:00,
2013-09-12 02:52:00,61.7,61.1,29.79,South,180,1.1,-999.0,98,-99.99,,,0.00,Acu-Link.com,2013-09-12 09:52:00,
2013-09-12 03:07:00,61.7,61.1,29.79,South,180,0.0,-999.0,98,-99.99,,,0.00,Acu-Link.com,2013-09-12 10:07:00,
2013-09-12 03:22:00,61.5,60.9,29.79,WSW,247,0.0,-999.0,98,-99.99,,,0.00,Acu-Link.com,2013-09-12 10:22:00,
2013-09-12 03:38:00,61.5,60.9,29.79,NNW,337,0.0,-999.0,98,-99.99,,,0.00,Acu-Link.com,2013-09-12 10:38:00,
2013-09-12 03:53:00,61.5,60.9,29.78,NNE,22,0.0,-999.0,98,-99.99,,,0.00,Acu-Link.com,2013-09-12 10:53:00,
2013-09-12 04:08:00,61.5,60.9,29.79,NNE,22,0.0,-999.0,98,-99.99,,,0.00,Acu-Link.com,2013-09-12 11:08:00,
2013-09-12 04:24:00,61.5,60.9,29.79,WSW,247,0.0,-999.0,98,-99.99,,,0.00,Acu-Link.com,2013-09-12 11:24:00,
2013-09-12 04:39:00,61.3,60.7,29.79,WNW,292,0.0,-999.0,98,-99.99,,,0.00,Acu-Link.com,2013-09-12 11:39:00,
2013-09-12 04:54:00,61.3,60.7,29.79,ENE,67,0.0,-999.0,98,-99.99,,,0.00,Acu-Link.com,2013-09-12 11:54:00,
2013-09-12 05:09:00,61.3,60.7,29.79,North,0,0.0,-999.0,98,-99.99,,,0.00,Acu-Link.com,2013-09-12 12:09:00,
2013-09-12 05:25:00,61.3,60.7,29.79,SW,225,0.0,-999.0,98,-99.99,,,0.00,Acu-Link.com,2013-09-12 12:25:00,
2013-09-12 05:40:00,61.2,60.6,29.79,West,270,0.0,-999.0,98,-99.99,,,0.00,Acu-Link.com,2013-09-12 12:40:00,
2013-09-12 05:55:00,61.2,60.6,29.79,North,0,0.0,-999.0,98,-99.99,,,0.00,Acu-Link.com,2013-09-12 12:55:00,
2013-09-12 06:10:00,61.2,60.6,29.79,North,0,0.0,-999.0,98,-99.99,,,0.00,Acu-Link.com,2013-09-12 13:10:00,
2013-09-12 06:25:00,61.2,60.6,29.79,North,0,0.0,-999.0,98,-99.99,,,0.00,Acu-Link.com,2013-09-12 13:25:00,
2013-09-12 06:41:00,61.2,60.6,29.79,North,0,0.0,-999.0,98,-99.99,,,0.00,Acu-Link.com,2013-09-12 13:41:00,
2013-09-12 06:56:00,61.2,60.6,29.79,North,0,0.0,-999.0,98,-99.99,,,0.00,Acu-Link.com,2013-09-12 13:56:00,
2013-09-12 07:11:00,61.3,60.7,29.79,NE,45,0.0,-999.0,98,-99.99,,,0.00,Acu-Link.com,2013-09-12 14:11:00,
2013-09-12 07:27:00,61.5,60.9,29.80,NE,45,0.0,-999.0,98,-99.99,,,0.00,Acu-Link.com,2013-09-12 14:27:00,
2013-09-12 07:42:00,61.5,60.9,29.80,NE,45,0.0,-999.0,98,-99.99,,,0.00,Acu-Link.com,2013-09-12 14:42:00,
2013-09-12 07:57:00,62.1,61.5,29.80,ESE,112,0.0,-999.0,98,-99.99,,,0.00,Acu-Link.com,2013-09-12 14:57:00,
2013-09-12 08:13:00,62.4,61.8,29.80,SSW,202,0.0,-999.0,98,-99.99,,,0.00,Acu-Link.com,2013-09-12 15:13:00,
2013-09-12 08:28:00,62.6,62.0,29.80,NNE,22,0.0,-999.0,98,-99.99,,,0.00,Acu-Link.com,2013-09-12 15:28:00,
2013-09-12 08:43:00,62.2,61.6,29.80,NNE,22,0.0,-999.0,98,-99.99,,,0.00,Acu-Link.com,2013-09-12 15:43:00,
2013-09-12 08:58:00,63.5,62.9,29.80,SE,135,0.0,-999.0,98,-99.99,,,0.00,Acu-Link.com,2013-09-12 15:58:00,
2013-09-12 09:14:00,64.0,42.2,29.80,North,0,0.0,-999.0,45,-99.99,,,0.00,Acu-Link.com,2013-09-12 16:14:00,
2013-09-12 09:29:00,64.0,63.4,29.79,North,0,0.0,-999.0,98,-99.99,,,0.00,Acu-Link.com,2013-09-12 16:29:00,
2013-09-12 09:44:00,65.3,62.9,29.79,NE,45,0.0,-999.0,92,-99.99,,,0.00,Acu-Link.com,2013-09-12 16:44:00,
2013-09-12 09:59:00,66.4,-37.0,29.79,NE,45,2.7,-999.0,1,-99.99,,,0.00,Acu-Link.com,2013-09-12 16:59:00,
2013-09-12 10:15:00,66.6,-36.9,29.79,NNE,22,1.7,-999.0,1,-99.99,,,0.00,Acu-Link.com,2013-09-12 17:15:00,
2013-09-12 10:30:00,67.5,-36.3,29.80,West,270,0.0,-999.0,1,-99.99,,,0.00,Acu-Link.com,2013-09-12 17:30:00,
2013-09-12 10:45:00,68.2,-35.9,29.79,West,270,1.7,-999.0,1,-99.99,,,0.00,Acu-Link.com,2013-09-12 17:45:00,
2013-09-12 11:00:00,68.2,-35.9,29.79,West,270,0.0,-999.0,1,-99.99,,,0.00,Acu-Link.com,2013-09-12 18:00:00,
2013-09-12 11:16:00,66.2,12.1,29.79,NW,315,2.7,-999.0,12,-99.99,,,0.00,Acu-Link.com,2013-09-12 18:16:00,
2013-09-12 11:31:00,69.4,53.0,29.78,North,0,1.7,-999.0,56,-99.99,,,0.00,Acu-Link.com,2013-09-12 18:31:00,
2013-09-12 11:46:00,69.6,-35.1,29.78,West,270,2.2,-999.0,1,-99.99,,,0.00,Acu-Link.com,2013-09-12 18:46:00,
2013-09-12 12:01:00,67.8,-36.1,29.79,West,270,2.2,-999.0,1,-99.99,,,0.00,Acu-Link.com,2013-09-12 19:01:00,
2013-09-12 12:17:00,66.2,62.5,29.79,West,270,3.7,-999.0,88,-99.99,,,0.00,Acu-Link.com,2013-09-12 19:17:00,
2013-09-12 12:32:00,66.0,65.4,29.79,West,270,2.7,-999.0,98,-99.99,,,0.00,Acu-Link.com,2013-09-12 19:32:00,
2013-09-12 12:47:00,66.2,8.0,29.79,WNW,292,2.7,-999.0,10,-99.99,,,0.00,Acu-Link.com,2013-09-12 19:47:00,
2013-09-12 13:02:00,66.6,-24.4,29.79,SW,225,4.2,-999.0,2,-99.99,,,0.00,Acu-Link.com,2013-09-12 20:02:00,
2013-09-12 13:18:00,66.6,-2.6,29.79,WNW,292,4.7,-999.0,6,-99.99,,,0.00,Acu-Link.com,2013-09-12 20:18:00,
2013-09-12 13:33:00,66.6,-36.9,29.79,West,270,5.3,-999.0,1,-99.99,,,0.00,Acu-Link.com,2013-09-12 20:33:00,
2013-09-12 13:48:00,66.4,28.5,29.78,West,270,1.1,-999.0,24,-99.99,,,0.00,Acu-Link.com,2013-09-12 20:48:00,
2013-09-12 14:04:00,67.1,-36.6,29.78,WSW,247,4.2,-999.0,1,-99.99,,,0.00,Acu-Link.com,2013-09-12 21:04:00,
2013-09-12 14:19:00,66.7,-36.8,29.78,NE,45,4.7,-999.0,1,-99.99,,,0.00,Acu-Link.com,2013-09-12 21:19:00,
2013-09-12 14:34:00,67.1,-36.6,29.78,WSW,247,3.2,-999.0,1,-99.99,,,0.00,Acu-Link.com,2013-09-12 21:34:00,
2013-09-12 14:50:00,67.5,-36.3,29.77,SSW,202,2.2,-999.0,1,-99.99,,,0.00,Acu-Link.com,2013-09-12 21:50:00,
2013-09-12 15:05:00,67.5,-36.3,29.77,NNW,337,2.7,-999.0,1,-99.99,,,0.00,Acu-Link.com,2013-09-12 22:05:00,
2013-09-12 15:20:00,67.6,-36.3,29.77,ESE,112,2.7,-999.0,1,-99.99,,,0.00,Acu-Link.com,2013-09-12 22:20:00,
2013-09-12 15:35:00,66.9,-36.7,29.77,NW,315,3.7,-999.0,1,-99.99,,,0.00,Acu-Link.com,2013-09-12 22:35:00,
2013-09-12 15:51:00,66.7,-36.8,29.77,NW,315,2.2,-999.0,1,-99.99,,,0.00,Acu-Link.com,2013-09-12 22:51:00,
2013-09-12 16:06:00,66.7,-36.8,29.77,West,270,3.7,-999.0,1,-99.99,,,0.00,Acu-Link.com,2013-09-12 23:06:00,
2013-09-12 16:21:00,67.5,-36.3,29.76,NNW,337,2.2,-999.0,1,-99.99,,,0.00,Acu-Link.com,2013-09-12 23:21:00,
2013-09-12 16:37:00,66.0,19.9,29.76,SW,225,4.2,-999.0,17,-99.99,,,0.00,Acu-Link.com,2013-09-12 23:37:00,
2013-09-12 16:52:00,65.1,59.1,29.76,WSW,247,1.7,-999.0,81,-99.99,,,0.00,Acu-Link.com,2013-09-12 23:52:00,
2013-09-12 17:07:00,66.9,-36.7,29.76,West,270,2.2,-999.0,1,-99.99,,,0.00,Acu-Link.com,2013-09-13 00:07:00,
2013-09-12 17:23:00,66.2,-37.1,29.75,West,270,1.1,-999.0,1,-99.99,,,0.00,Acu-Link.com,2013-09-13 00:23:00,
2013-09-12 17:38:00,65.5,13.4,29.75,West,270,2.7,-999.0,13,-99.99,,,0.00,Acu-Link.com,2013-09-13 00:38:00,
2013-09-12 17:53:00,65.3,25.5,29.75,WNW,292,2.2,-999.0,22,-99.99,,,0.00,Acu-Link.com,2013-09-13 00:53:00,
2013-09-12 18:08:00,64.4,63.5,29.75,WNW,292,2.2,-999.0,97,-99.99,,,0.00,Acu-Link.com,2013-09-13 01:08:00,
2013-09-12 18:24:00,63.5,62.9,29.75,South,180,1.7,-999.0,98,-99.99,,,0.00,Acu-Link.com,2013-09-13 01:24:00,
2013-09-12 18:39:00,63.0,62.4,29.75,NNW,337,0.0,-999.0,98,-99.99,,,0.00,Acu-Link.com,2013-09-13 01:39:00,
2013-09-12 18:54:00,62.2,61.6,29.75,WNW,292,0.0,-999.0,98,-99.99,,,0.00,Acu-Link.com,2013-09-13 01:54:00,
2013-09-12 19:10:00,62.1,61.5,29.75,West,270,4.2,-999.0,98,-99.99,,,0.00,Acu-Link.com,2013-09-13 02:10:00,
2013-09-12 19:25:00,61.5,60.9,29.75,SSW,202,2.7,-999.0,98,-99.99,,,0.00,Acu-Link.com,2013-09-13 02:25:00,
2013-09-12 19:40:00,61.5,60.9,29.75,ESE,112,0.0,-999.0,98,-99.99,,,0.00,Acu-Link.com,2013-09-13 02:40:00,
2013-09-12 19:55:00,61.5,60.9,29.75,WSW,247,0.0,-999.0,98,-99.99,,,0.00,Acu-Link.com,2013-09-13 02:55:00,
2013-09-12 20:11:00,61.5,60.9,29.75,West,270,0.0,-999.0,98,-99.99,,,0.00,Acu-Link.com,2013-09-13 03:11:00,
2013-09-12 20:26:00,61.5,60.9,29.75,West,270,1.7,-999.0,98,-99.99,,,0.00,Acu-Link.com,2013-09-13 03:26:00,
2013-09-12 20:41:00,61.7,61.1,29.75,WSW,247,0.0,-999.0,98,-99.99,,,0.00,Acu-Link.com,2013-09-13 03:41:00,
2013-09-12 20:57:00,61.9,61.3,29.76,South,180,0.0,-999.0,98,-99.99,,,0.00,Acu-Link.com,2013-09-13 03:57:00,
2013-09-12 21:12:00,61.9,61.3,29.76,SE,135,2.2,-999.0,98,-99.99,,,0.00,Acu-Link.com,2013-09-13 04:12:00,
2013-09-12 21:27:00,62.1,61.5,29.76,WSW,247,1.7,-999.0,98,-99.99,,,0.00,Acu-Link.com,2013-09-13 04:27:00,
2013-09-12 21:43:00,61.9,61.3,29.76,ESE,112,1.7,-999.0,98,-99.99,,,0.00,Acu-Link.com,2013-09-13 04:43:00,
2013-09-12 21:58:00,61.9,61.3,29.76,South,180,0.0,-999.0,98,-99.99,,,0.00,Acu-Link.com,2013-09-13 04:58:00,
2013-09-12 22:13:00,61.9,61.3,29.76,SE,135,0.0,-999.0,98,-99.99,,,0.00,Acu-Link.com,2013-09-13 05:13:00,
2013-09-12 22:29:00,61.9,61.3,29.76,WSW,247,0.0,-999.0,98,-99.99,,,0.00,Acu-Link.com,2013-09-13 05:29:00,
2013-09-12 22:44:00,62.1,61.5,29.76,ESE,112,0.0,-999.0,98,-99.99,,,0.00,Acu-Link.com,2013-09-13 05:44:00,
2013-09-12 22:59:00,62.1,61.5,29.76,SE,135,0.0,-999.0,98,-99.99,,,0.00,Acu-Link.com,2013-09-13 05:59:00,
2013-09-12 23:15:00,62.2,61.6,29.77,WSW,247,0.0,-999.0,98,-99.99,,,0.00,Acu-Link.com,2013-09-13 06:15:00,
2013-09-12 23:30:00,62.4,61.8,29.76,SW,225,0.0,-999.0,98,-99.99,,,0.00,Acu-Link.com,2013-09-13 06:30:00,
2013-09-12 23:45:00,62.4,61.8,29.77,NW,315,0.0,-999.0,98,-99.99,,,0.00,Acu-Link.com,2013-09-13 06:45:00,